Time;durP1;ratioP1;P1;durP2;ratioP2;P2;SDS_P1;SDS_P2;PMS_P1;PMS_P2;Temp;Humidity;BMP_temperature;BMP_pressure;BME280_temperature;BME280_humidity;BME280_pressure;Samples;Min_cycle;Max_cycle;Signal;HPM_P1;HPM_P2
2022/09/16 00:00:54;;;;;;;;;;;12.70;99.90;;;;;;5069192;28;19978;-72
2022/09/16 00:03:26;;;;;;;;;;;12.70;99.90;;;;;;5069153;28;19935;-73
2022/09/16 00:05:58;;;;;;;;;;;12.70;99.90;;;;;;5069529;28;20298;-72
2022/09/16 00:08:30;;;;;;;;;;;12.70;99.90;;;;;;5080002;28;19924;-72
2022/09/16 00:11:02;;;;;;;;;;;12.80;99.90;;;;;;5068677;28;19924;-72
2022/09/16 00:13:34;;;;;;;;;;;12.70;99.90;;;;;;5068435;28;19977;-72
2022/09/16 00:16:01;;;;;;;;;;;12.70;99.90;;;;;;5080006;28;19973;-72
2022/09/16 00:18:27;;;;;;;;;;;12.80;99.90;;;;;;5074842;28;19924;-72
2022/09/16 00:20:59;;;;;;;;;;;12.80;99.90;;;;;;5074319;28;19924;-71
2022/09/16 00:23:31;;;;;;;;;;;12.80;99.90;;;;;;5063479;28;19924;-72
2022/09/16 00:26:02;;;;;;;;;;;12.80;99.90;;;;;;5061211;28;19978;-72
2022/09/16 00:28:34;;;;;;;;;;;12.70;99.90;;;;;;5065422;28;19932;-71
2022/09/16 00:31:06;;;;;;;;;;;12.70;99.90;;;;;;5068427;28;19990;-72
2022/09/16 00:33:37;;;;;;;;;;;12.70;99.90;;;;;;5068436;28;19924;-72
2022/09/16 00:36:13;;;;;;;;;;;12.60;99.90;;;;;;5090852;28;20001;-72
2022/09/16 00:38:48;;;;;;;;;;;12.60;99.90;;;;;;5069081;28;19924;-72
2022/09/16 00:41:22;;;;;;;;;;;12.60;99.90;;;;;;5081741;28;19928;-72
2022/09/16 00:43:55;;;;;;;;;;;12.60;99.90;;;;;;5092178;28;19978;-72
2022/09/16 00:46:53;;;;;;;;;;;12.60;99.90;;;;;;5070280;28;19924;-72
2022/09/16 00:49:23;;;;;;;;;;;12.60;99.90;;;;;;5078781;28;19978;-72
2022/09/16 00:51:58;;;;;;;;;;;12.70;99.90;;;;;;5068730;28;19977;-72
2022/09/16 00:54:30;;;;;;;;;;;12.70;99.90;;;;;;5072523;28;19970;-71
2022/09/16 00:57:01;;;;;;;;;;;12.70;99.90;;;;;;5067167;28;19978;-72
2022/09/16 00:59:29;;;;;;;;;;;12.60;99.90;;;;;;5082867;28;19933;-72
2022/09/16 01:02:07;;;;;;;;;;;12.60;99.90;;;;;;5077751;28;19939;-72
2022/09/16 01:04:54;;;;;;;;;;;12.70;99.90;;;;;;5090894;28;19982;-72
2022/09/16 01:07:30;;;;;;;;;;;12.70;99.90;;;;;;5081604;28;19925;-72
2022/09/16 01:10:01;;;;;;;;;;;12.70;99.90;;;;;;5072209;28;19928;-72
2022/09/16 01:12:33;;;;;;;;;;;12.70;99.90;;;;;;5066414;28;19928;-72
2022/09/16 01:15:05;;;;;;;;;;;12.80;99.90;;;;;;5067439;28;19935;-73
2022/09/16 01:17:38;;;;;;;;;;;12.70;99.90;;;;;;5082825;28;19924;-72
2022/09/16 01:20:17;;;;;;;;;;;12.70;99.90;;;;;;5077433;28;20353;-71
2022/09/16 01:23:09;;;;;;;;;;;12.70;99.90;;;;;;5077805;28;19924;-72
2022/09/16 01:25:43;;;;;;;;;;;12.70;99.90;;;;;;5081853;28;19970;-72
2022/09/16 01:28:21;;;;;;;;;;;12.70;99.90;;;;;;5072373;28;19935;-72
2022/09/16 01:30:51;;;;;;;;;;;12.70;99.90;;;;;;5073274;28;19978;-72
2022/09/16 01:33:26;;;;;;;;;;;12.80;99.90;;;;;;5072524;28;20712;-72
2022/09/16 01:36:10;;;;;;;;;;;12.70;99.90;;;;;;5067028;28;20120;-73
2022/09/16 01:38:48;;;;;;;;;;;12.80;99.90;;;;;;5086293;28;19932;-72
2022/09/16 01:41:29;;;;;;;;;;;12.80;99.90;;;;;;5067146;28;20361;-71
2022/09/16 01:43:56;;;;;;;;;;;12.80;99.90;;;;;;5053617;28;19924;-72
2022/09/16 01:46:32;;;;;;;;;;;12.80;99.90;;;;;;5045448;28;19925;-72
2022/09/16 01:49:12;;;;;;;;;;;12.80;99.90;;;;;;5064138;28;20352;-72
2022/09/16 01:52:01;;;;;;;;;;;12.80;99.90;;;;;;5069150;28;19927;-72
2022/09/16 01:54:32;;;;;;;;;;;12.80;99.90;;;;;;5076073;28;19925;-72
2022/09/16 01:57:11;;;;;;;;;;;12.80;99.90;;;;;;5086987;28;19950;-72
2022/09/16 01:59:47;;;;;;;;;;;12.90;99.90;;;;;;5078191;28;19932;-72
2022/09/16 02:02:20;;;;;;;;;;;12.90;99.90;;;;;;5062842;28;19928;-72
2022/09/16 02:04:55;;;;;;;;;;;12.90;99.90;;;;;;5070129;28;19924;-71
2022/09/16 02:07:30;;;;;;;;;;;12.90;99.90;;;;;;5072125;28;19931;-72
2022/09/16 02:10:22;;;;;;;;;;;12.90;99.90;;;;;;5077810;28;20280;-72
2022/09/16 02:13:02;;;;;;;;;;;12.90;99.90;;;;;;5049420;28;20319;-72
2022/09/16 02:15:34;;;;;;;;;;;12.90;99.90;;;;;;5071643;28;19928;-72
2022/09/16 02:18:07;;;;;;;;;;;12.80;99.90;;;;;;5067036;28;19982;-71
2022/09/16 02:20:36;;;;;;;;;;;12.90;99.90;;;;;;5056624;28;19931;-72
2022/09/16 02:23:11;;;;;;;;;;;12.90;99.90;;;;;;5073032;28;19967;-72
2022/09/16 02:25:45;;;;;;;;;;;12.90;99.90;;;;;;5074999;28;19928;-72
2022/09/16 02:28:15;;;;;;;;;;;12.80;99.90;;;;;;5067714;28;19928;-72
2022/09/16 02:30:44;;;;;;;;;;;12.80;99.90;;;;;;5070914;28;19928;-72
2022/09/16 02:33:16;;;;;;;;;;;12.80;99.90;;;;;;5064629;28;19924;-71
2022/09/16 02:35:46;;;;;;;;;;;12.80;99.90;;;;;;5071124;28;19928;-72
2022/09/16 02:38:18;;;;;;;;;;;12.80;99.90;;;;;;5064215;28;20606;-72
2022/09/16 02:40:54;;;;;;;;;;;12.80;99.90;;;;;;5072217;28;19928;-72
2022/09/16 02:43:26;;;;;;;;;;;12.80;99.90;;;;;;5082484;28;19924;-72
2022/09/16 02:46:08;;;;;;;;;;;12.80;99.90;;;;;;5076671;28;19928;-72
2022/09/16 02:48:49;;;;;;;;;;;12.70;99.90;;;;;;5052691;28;19928;-72
2022/09/16 02:51:33;;;;;;;;;;;12.70;99.90;;;;;;5066397;28;19932;-72
2022/09/16 02:54:25;;;;;;;;;;;12.70;99.90;;;;;;5076646;28;19932;-72
2022/09/16 02:56:56;;;;;;;;;;;12.70;99.90;;;;;;5074470;28;19925;-72
2022/09/16 02:59:28;;;;;;;;;;;12.70;99.90;;;;;;5068772;28;20271;-72
2022/09/16 03:02:00;;;;;;;;;;;12.70;99.90;;;;;;5064146;28;19970;-72
2022/09/16 03:04:33;;;;;;;;;;;12.60;99.90;;;;;;5083952;28;19932;-72
2022/09/16 03:07:05;;;;;;;;;;;12.60;99.90;;;;;;5078233;28;19928;-73
2022/09/16 03:09:38;;;;;;;;;;;12.60;99.90;;;;;;5073819;28;19986;-72
2022/09/16 03:12:05;;;;;;;;;;;12.60;99.90;;;;;;5084116;28;19928;-72
2022/09/16 03:14:51;;;;;;;;;;;12.60;99.90;;;;;;5079497;28;19924;-72
2022/09/16 03:17:24;;;;;;;;;;;12.60;99.90;;;;;;5064907;28;19924;-72
2022/09/16 03:20:11;;;;;;;;;;;12.60;99.90;;;;;;5078649;28;19928;-71
2022/09/16 03:22:43;;;;;;;;;;;12.60;99.90;;;;;;5071400;28;19989;-72
2022/09/16 03:25:23;;;;;;;;;;;12.60;99.90;;;;;;5070520;28;19932;-72
2022/09/16 03:27:59;;;;;;;;;;;12.60;99.90;;;;;;5080509;28;19939;-72
2022/09/16 03:30:32;;;;;;;;;;;12.60;99.90;;;;;;5066120;28;19939;-73
2022/09/16 03:33:01;;;;;;;;;;;12.60;99.90;;;;;;5072506;28;19928;-72
2022/09/16 03:35:42;;;;;;;;;;;12.60;99.90;;;;;;5070414;28;19928;-71
2022/09/16 03:38:15;;;;;;;;;;;12.60;99.90;;;;;;5077964;28;19932;-72
2022/09/16 03:40:47;;;;;;;;;;;12.60;99.90;;;;;;5079390;28;19924;-72
2022/09/16 03:43:19;;;;;;;;;;;12.60;99.90;;;;;;5046591;28;20318;-72
2022/09/16 03:45:50;;;;;;;;;;;12.60;99.90;;;;;;5079513;28;19950;-72
2022/09/16 03:48:22;;;;;;;;;;;12.60;99.90;;;;;;5072452;28;19932;-72
2022/09/16 03:50:53;;;;;;;;;;;12.60;99.90;;;;;;5081107;28;19969;-72
2022/09/16 03:53:25;;;;;;;;;;;12.60;99.90;;;;;;5062956;28;19936;-72
2022/09/16 03:55:56;;;;;;;;;;;12.60;99.90;;;;;;5065650;28;19925;-72
2022/09/16 03:58:28;;;;;;;;;;;12.60;99.90;;;;;;5053411;28;19925;-72
2022/09/16 04:00:59;;;;;;;;;;;12.60;99.90;;;;;;5068905;28;19977;-71
2022/09/16 04:03:31;;;;;;;;;;;12.70;99.90;;;;;;5077923;28;20441;-72
2022/09/16 04:06:03;;;;;;;;;;;12.60;99.90;;;;;;5067354;28;20298;-72
2022/09/16 04:08:34;;;;;;;;;;;12.60;99.90;;;;;;5064958;28;19928;-72
2022/09/16 04:11:06;;;;;;;;;;;12.60;99.90;;;;;;5079171;28;19924;-72
2022/09/16 04:13:38;;;;;;;;;;;12.60;99.90;;;;;;5081665;28;19924;-72
2022/09/16 04:16:09;;;;;;;;;;;12.70;99.90;;;;;;5066385;28;19981;-72
2022/09/16 04:18:41;;;;;;;;;;;12.60;99.90;;;;;;5062190;28;19924;-73
2022/09/16 04:21:13;;;;;;;;;;;12.60;99.90;;;;;;5069358;28;19978;-73
2022/09/16 04:23:45;;;;;;;;;;;12.60;99.90;;;;;;5078442;28;19974;-72
2022/09/16 04:26:17;;;;;;;;;;;12.60;99.90;;;;;;5068530;28;19924;-72
2022/09/16 04:28:50;;;;;;;;;;;12.60;99.90;;;;;;5067077;28;19925;-72
2022/09/16 04:31:22;;;;;;;;;;;12.60;99.90;;;;;;5069304;28;20408;-72
2022/09/16 04:33:49;;;;;;;;;;;12.70;99.90;;;;;;5084476;28;19924;-72
2022/09/16 04:36:21;;;;;;;;;;;12.70;99.90;;;;;;5074937;28;19978;-72
2022/09/16 04:38:53;;;;;;;;;;;12.70;99.90;;;;;;5070834;28;19977;-72
2022/09/16 04:41:25;;;;;;;;;;;12.70;99.90;;;;;;5080499;28;19928;-71
2022/09/16 04:43:58;;;;;;;;;;;12.70;99.90;;;;;;5066754;28;19978;-72
2022/09/16 04:46:31;;;;;;;;;;;12.70;99.90;;;;;;5060292;28;19925;-72
2022/09/16 04:49:02;;;;;;;;;;;12.70;99.90;;;;;;5063299;28;19929;-72
2022/09/16 04:51:34;;;;;;;;;;;12.70;99.90;;;;;;5047087;28;19928;-72
2022/09/16 04:54:05;;;;;;;;;;;12.70;99.90;;;;;;5085245;28;19932;-72
2022/09/16 04:56:37;;;;;;;;;;;12.80;99.90;;;;;;5077088;28;20592;-72
2022/09/16 04:59:09;;;;;;;;;;;12.80;99.90;;;;;;5075185;28;19977;-72
2022/09/16 05:01:42;;;;;;;;;;;12.80;99.90;;;;;;5074701;28;19928;-72
2022/09/16 05:04:14;;;;;;;;;;;12.80;99.90;;;;;;5078152;28;19924;-72
2022/09/16 05:06:45;;;;;;;;;;;12.80;99.90;;;;;;5074334;28;19950;-72
2022/09/16 05:09:17;;;;;;;;;;;12.90;99.90;;;;;;5080355;28;19974;-72
2022/09/16 05:11:48;;;;;;;;;;;12.90;99.90;;;;;;5083814;28;19977;-72
2022/09/16 05:14:20;;;;;;;;;;;12.90;99.90;;;;;;5068253;28;19933;-71
2022/09/16 05:16:52;;;;;;;;;;;12.90;99.90;;;;;;5081473;28;19924;-72
2022/09/16 05:19:24;;;;;;;;;;;13.00;99.90;;;;;;5067178;28;19931;-72
2022/09/16 05:21:56;;;;;;;;;;;13.00;99.90;;;;;;5080944;28;19928;-73
2022/09/16 05:24:27;;;;;;;;;;;13.00;99.90;;;;;;5080590;28;19924;-72
2022/09/16 05:26:59;;;;;;;;;;;13.10;99.90;;;;;;5083827;28;20398;-72
2022/09/16 05:29:30;;;;;;;;;;;13.10;99.90;;;;;;5072631;28;19932;-73
2022/09/16 05:32:02;;;;;;;;;;;13.20;99.90;;;;;;5082531;28;20019;-72
2022/09/16 05:34:29;;;;;;;;;;;13.20;99.90;;;;;;5060465;28;19970;-73
2022/09/16 05:37:00;;;;;;;;;;;13.20;99.90;;;;;;5044047;28;19925;-73
2022/09/16 05:39:27;;;;;;;;;;;13.10;99.90;;;;;;5082594;28;19924;-73
2022/09/16 05:41:59;;;;;;;;;;;13.10;99.90;;;;;;5075897;28;19975;-72
2022/09/16 05:44:30;;;;;;;;;;;13.20;99.90;;;;;;5091960;28;19970;-72
2022/09/16 05:47:02;;;;;;;;;;;13.20;99.90;;;;;;5073227;28;19924;-73
2022/09/16 05:49:29;;;;;;;;;;;13.30;99.90;;;;;;5081863;28;19994;-73
2022/09/16 05:52:01;;;;;;;;;;;13.30;99.90;;;;;;5070407;28;20379;-72
2022/09/16 05:54:32;;;;;;;;;;;13.30;99.90;;;;;;5090968;28;19946;-72
2022/09/16 05:57:04;;;;;;;;;;;13.40;99.90;;;;;;5085544;28;19991;-73
2022/09/16 05:59:36;;;;;;;;;;;13.40;99.90;;;;;;5066621;28;20414;-72
2022/09/16 06:02:07;;;;;;;;;;;13.40;99.90;;;;;;5054226;28;19974;-72
2022/09/16 06:04:39;;;;;;;;;;;13.40;99.90;;;;;;5082432;28;19955;-72
2022/09/16 06:07:06;;;;;;;;;;;13.30;99.90;;;;;;5076469;28;20346;-72
2022/09/16 06:09:37;;;;;;;;;;;13.30;99.90;;;;;;5052238;28;20313;-73
2022/09/16 06:12:09;;;;;;;;;;;13.40;99.90;;;;;;5081288;28;20278;-73
2022/09/16 06:14:36;;;;;;;;;;;13.30;99.90;;;;;;5078569;28;19928;-73
2022/09/16 06:17:07;;;;;;;;;;;13.40;99.90;;;;;;5069561;28;19925;-73
2022/09/16 06:19:39;;;;;;;;;;;13.40;99.90;;;;;;5061378;28;19936;-72
2022/09/16 06:22:05;;;;;;;;;;;13.40;99.90;;;;;;5075785;28;19925;-73
2022/09/16 06:24:37;;;;;;;;;;;13.40;99.90;;;;;;5047538;28;19925;-72
2022/09/16 06:27:08;;;;;;;;;;;13.40;99.90;;;;;;5079180;28;19924;-72
2022/09/16 06:29:35;;;;;;;;;;;13.30;99.90;;;;;;5062462;28;19981;-72
2022/09/16 06:32:06;;;;;;;;;;;13.40;99.90;;;;;;5077824;28;20366;-72
2022/09/16 06:34:33;;;;;;;;;;;13.40;99.90;;;;;;5088625;28;20374;-73
2022/09/16 06:37:05;;;;;;;;;;;13.40;99.90;;;;;;5064898;28;20341;-72
2022/09/16 06:39:37;;;;;;;;;;;13.40;99.90;;;;;;5082554;28;19970;-72
2022/09/16 06:42:09;;;;;;;;;;;13.40;99.90;;;;;;5075982;28;19925;-73
2022/09/16 06:44:40;;;;;;;;;;;13.40;99.90;;;;;;5055297;28;19929;-72
2022/09/16 06:47:07;;;;;;;;;;;13.40;99.90;;;;;;5055887;28;19932;-73
2022/09/16 06:49:38;;;;;;;;;;;13.40;99.90;;;;;;5071454;28;20054;-72
2022/09/16 06:52:10;;;;;;;;;;;13.50;99.90;;;;;;5059757;28;19924;-72
2022/09/16 06:54:37;;;;;;;;;;;13.50;99.90;;;;;;5082517;28;19978;-72
2022/09/16 06:57:08;;;;;;;;;;;13.50;99.90;;;;;;5078312;28;20345;-72
2022/09/16 06:59:40;;;;;;;;;;;13.60;99.90;;;;;;5068397;28;19924;-72
2022/09/16 07:02:11;;;;;;;;;;;13.60;99.90;;;;;;5076057;28;19924;-73
2022/09/16 07:04:38;;;;;;;;;;;13.60;99.90;;;;;;5072598;28;19968;-74
2022/09/16 07:07:10;;;;;;;;;;;13.70;99.90;;;;;;5080512;28;19980;-73
2022/09/16 07:09:41;;;;;;;;;;;13.70;99.90;;;;;;5082760;28;20340;-73
2022/09/16 07:12:13;;;;;;;;;;;13.70;99.90;;;;;;5057089;28;19986;-73
2022/09/16 07:14:44;;;;;;;;;;;13.80;99.90;;;;;;5068589;28;19928;-72
2022/09/16 07:17:16;;;;;;;;;;;13.90;99.90;;;;;;5070339;28;19976;-73
2022/09/16 07:19:48;;;;;;;;;;;14.00;99.90;;;;;;5075566;28;20298;-73
2022/09/16 07:22:20;;;;;;;;;;;14.10;99.90;;;;;;5059663;28;19971;-77
2022/09/16 07:24:53;;;;;;;;;;;14.20;99.90;;;;;;5066403;28;19924;-72
2022/09/16 07:27:24;;;;;;;;;;;14.30;99.90;;;;;;5072846;28;19978;-72
2022/09/16 07:29:56;;;;;;;;;;;14.20;99.90;;;;;;5075211;28;20386;-73
2022/09/16 07:32:27;;;;;;;;;;;14.20;99.90;;;;;;5071502;28;20059;-73
2022/09/16 07:34:59;;;;;;;;;;;14.30;99.90;;;;;;5070984;28;20284;-72
2022/09/16 07:37:30;;;;;;;;;;;14.30;99.90;;;;;;5077496;28;19951;-72
2022/09/16 07:40:03;;;;;;;;;;;14.30;99.90;;;;;;5079182;28;20387;-73
2022/09/16 07:42:29;;;;;;;;;;;14.40;99.90;;;;;;5057952;28;19929;-73
2022/09/16 07:45:01;;;;;;;;;;;14.30;99.90;;;;;;5068141;28;19974;-73
2022/09/16 07:47:27;;;;;;;;;;;14.30;99.90;;;;;;5068504;28;20045;-72
2022/09/16 07:49:59;;;;;;;;;;;14.40;99.90;;;;;;5077311;28;19978;-73
2022/09/16 07:52:31;;;;;;;;;;;14.50;99.90;;;;;;5036538;28;20013;-72
2022/09/16 07:55:02;;;;;;;;;;;14.50;99.90;;;;;;5060802;28;19924;-72
2022/09/16 07:57:34;;;;;;;;;;;14.40;99.90;;;;;;5067542;28;19959;-73
2022/09/16 08:00:06;;;;;;;;;;;14.40;99.90;;;;;;5076675;28;19932;-72
2022/09/16 08:02:37;;;;;;;;;;;14.40;99.90;;;;;;5074082;28;20406;-73
2022/09/16 08:05:08;;;;;;;;;;;14.40;99.90;;;;;;5073118;28;19924;-73
2022/09/16 08:07:40;;;;;;;;;;;14.30;99.90;;;;;;5069551;28;19924;-72
2022/09/16 08:10:12;;;;;;;;;;;14.30;99.90;;;;;;5072109;28;19994;-72
2022/09/16 08:12:45;;;;;;;;;;;14.30;99.90;;;;;;5054906;28;19981;-73
2022/09/16 08:15:17;;;;;;;;;;;14.40;99.90;;;;;;5061582;28;20329;-72
2022/09/16 08:17:48;;;;;;;;;;;14.50;99.90;;;;;;5053700;28;20361;-72
2022/09/16 08:20:20;;;;;;;;;;;14.50;99.90;;;;;;5067652;28;19977;-73
2022/09/16 08:22:52;;;;;;;;;;;14.50;99.90;;;;;;5058760;28;19970;-72
2022/09/16 08:25:24;;;;;;;;;;;14.50;99.90;;;;;;5078944;28;20428;-72
2022/09/16 08:27:56;;;;;;;;;;;14.50;99.90;;;;;;5085440;28;19932;-73
2022/09/16 08:30:27;;;;;;;;;;;14.50;99.90;;;;;;5079796;28;20398;-72
2022/09/16 08:32:57;;;;;;;;;;;14.50;99.90;;;;;;5056445;28;20005;-73
2022/09/16 08:35:25;;;;;;;;;;;14.60;99.90;;;;;;5065022;28;19935;-73
2022/09/16 08:37:58;;;;;;;;;;;14.60;99.90;;;;;;5084039;28;19925;-73
2022/09/16 08:40:33;;;;;;;;;;;14.60;99.90;;;;;;5088633;28;19924;-72
2022/09/16 08:43:04;;;;;;;;;;;14.60;99.90;;;;;;5072071;28;19925;-74
2022/09/16 08:45:42;;;;;;;;;;;14.60;99.90;;;;;;5084000;28;19925;-73
2022/09/16 08:48:14;;;;;;;;;;;14.50;99.90;;;;;;5070611;28;19971;-73
2022/09/16 08:50:42;;;;;;;;;;;14.50;99.90;;;;;;5069109;28;19970;-73
2022/09/16 08:53:13;;;;;;;;;;;14.40;99.90;;;;;;5076030;28;19928;-73
2022/09/16 08:55:47;;;;;;;;;;;14.30;99.90;;;;;;5084281;28;20307;-73
2022/09/16 08:58:19;;;;;;;;;;;14.10;99.90;;;;;;5081729;28;19925;-72
2022/09/16 09:01:02;;;;;;;;;;;14.00;99.90;;;;;;5082295;28;20345;-72
2022/09/16 09:03:38;;;;;;;;;;;14.00;99.90;;;;;;5066382;28;19924;-73
2022/09/16 09:06:28;;;;;;;;;;;14.00;99.90;;;;;;5077791;28;20618;-72
2022/09/16 09:08:59;;;;;;;;;;;14.00;99.90;;;;;;5061291;28;19974;-73
2022/09/16 09:11:39;;;;;;;;;;;14.00;99.90;;;;;;5082049;28;19994;-73
2022/09/16 09:14:05;;;;;;;;;;;14.00;99.90;;;;;;5065094;28;19929;-72
2022/09/16 09:16:50;;;;;;;;;;;13.90;99.90;;;;;;5070971;28;19979;-73
2022/09/16 09:19:37;;;;;;;;;;;13.90;99.90;;;;;;5067860;28;19974;-72
2022/09/16 09:22:12;;;;;;;;;;;13.80;99.90;;;;;;5065323;28;19925;-72
2022/09/16 09:24:54;;;;;;;;;;;13.80;99.90;;;;;;5075171;28;19925;-73
2022/09/16 09:27:29;;;;;;;;;;;13.70;99.90;;;;;;5072112;28;19936;-73
2022/09/16 09:30:18;;;;;;;;;;;13.70;99.90;;;;;;5079578;28;20004;-73
2022/09/16 09:33:08;;;;;;;;;;;13.70;99.90;;;;;;5060834;28;19997;-73
2022/09/16 09:36:01;;;;;;;;;;;13.70;99.90;;;;;;5077225;28;20327;-73
2022/09/16 09:38:39;;;;;;;;;;;13.50;99.90;;;;;;5059512;28;19932;-72
2022/09/16 09:41:14;;;;;;;;;;;13.50;99.90;;;;;;5067062;28;19942;-73
2022/09/16 09:43:50;;;;;;;;;;;13.40;99.90;;;;;;5074757;28;19932;-72
2022/09/16 09:46:25;;;;;;;;;;;13.30;99.90;;;;;;5064589;28;19924;-73
2022/09/16 09:48:59;;;;;;;;;;;13.20;99.90;;;;;;5068744;28;19935;-73
2022/09/16 09:51:36;;;;;;;;;;;13.10;99.90;;;;;;5075604;28;20754;-72
2022/09/16 09:54:28;;;;;;;;;;;13.10;99.90;;;;;;5067496;28;19986;-73
2022/09/16 09:57:09;;;;;;;;;;;13.00;99.90;;;;;;5073328;28;19951;-74
2022/09/16 09:59:44;;;;;;;;;;;13.00;99.90;;;;;;5072251;28;19931;-73
2022/09/16 10:02:16;;;;;;;;;;;13.00;99.90;;;;;;5065662;28;19932;-73
2022/09/16 10:04:43;;;;;;;;;;;13.00;99.90;;;;;;5080398;28;19970;-73
2022/09/16 10:07:17;;;;;;;;;;;13.00;99.90;;;;;;5075938;28;20433;-72
2022/09/16 10:09:55;;;;;;;;;;;12.90;99.90;;;;;;5079566;28;20482;-73
2022/09/16 10:12:31;;;;;;;;;;;13.00;99.90;;;;;;5075515;28;20453;-73
2022/09/16 10:15:03;;;;;;;;;;;13.00;99.90;;;;;;5063971;28;19982;-73
2022/09/16 10:17:35;;;;;;;;;;;12.90;99.90;;;;;;5064523;28;19932;-74
2022/09/16 10:20:21;;;;;;;;;;;12.90;99.90;;;;;;5063889;28;19928;-73
2022/09/16 10:22:56;;;;;;;;;;;13.00;99.90;;;;;;5039450;28;19940;-73
2022/09/16 10:25:29;;;;;;;;;;;12.90;99.90;;;;;;5057029;28;19925;-73
2022/09/16 10:28:02;;;;;;;;;;;12.80;99.90;;;;;;5075925;28;19931;-73
2022/09/16 10:31:03;;;;;;;;;;;12.80;99.90;;;;;;5079900;28;19924;-73
2022/09/16 10:33:41;;;;;;;;;;;12.70;99.90;;;;;;5048870;28;19974;-73
2022/09/16 10:36:20;;;;;;;;;;;12.60;99.90;;;;;;5081762;28;20539;-73
2022/09/16 10:38:59;;;;;;;;;;;12.60;99.90;;;;;;5068823;28;19959;-73
2022/09/16 10:41:33;;;;;;;;;;;12.50;99.90;;;;;;5065489;28;20342;-73
2022/09/16 10:44:17;;;;;;;;;;;12.40;99.90;;;;;;5051371;28;19990;-73
2022/09/16 10:47:11;;;;;;;;;;;12.40;99.90;;;;;;5053392;28;19924;-74
2022/09/16 10:49:48;;;;;;;;;;;12.30;99.90;;;;;;5068786;28;20390;-73
2022/09/16 10:52:22;;;;;;;;;;;12.40;99.90;;;;;;5056322;28;19924;-73
2022/09/16 10:54:54;;;;;;;;;;;12.40;99.90;;;;;;5063892;28;19978;-74
2022/09/16 10:57:28;;;;;;;;;;;12.40;99.90;;;;;;5077258;28;19924;-72
2022/09/16 11:00:07;;;;;;;;;;;12.40;99.90;;;;;;5083097;28;19924;-73
2022/09/16 11:02:38;;;;;;;;;;;12.30;99.90;;;;;;5053371;28;19943;-73
2022/09/16 11:05:13;;;;;;;;;;;12.20;99.90;;;;;;5069157;28;19928;-73
2022/09/16 11:07:49;;;;;;;;;;;12.20;99.90;;;;;;5056664;28;19925;-73
2022/09/16 11:10:31;;;;;;;;;;;12.20;99.90;;;;;;5070792;28;19924;-73
2022/09/16 11:13:09;;;;;;;;;;;12.20;99.90;;;;;;5081722;28;20390;-73
2022/09/16 11:15:40;;;;;;;;;;;12.20;99.90;;;;;;5067162;28;20442;-73
2022/09/16 11:18:12;;;;;;;;;;;12.20;99.90;;;;;;5081495;28;19932;-73
2022/09/16 11:21:02;;;;;;;;;;;12.20;99.90;;;;;;5045361;28;20295;-72
2022/09/16 11:23:56;;;;;;;;;;;12.30;99.90;;;;;;5068247;28;19989;-73
2022/09/16 11:26:36;;;;;;;;;;;12.20;99.90;;;;;;5069906;28;19981;-74
2022/09/16 11:29:03;;;;;;;;;;;12.20;99.90;;;;;;5069053;28;20453;-73
2022/09/16 11:31:34;;;;;;;;;;;12.20;99.90;;;;;;5075437;28;19932;-74
2022/09/16 11:34:17;;;;;;;;;;;12.20;99.90;;;;;;5066856;28;20383;-73
2022/09/16 11:36:58;;;;;;;;;;;12.20;99.90;;;;;;5078242;28;19977;-73
2022/09/16 11:39:38;;;;;;;;;;;12.20;99.90;;;;;;5068189;28;19974;-73
2022/09/16 11:42:29;;;;;;;;;;;12.20;99.90;;;;;;5058929;28;19997;-74
2022/09/16 11:45:19;;;;;;;;;;;12.30;99.90;;;;;;5060139;28;19925;-73
2022/09/16 11:47:57;;;;;;;;;;;12.30;99.90;;;;;;5070150;28;19950;-74
2022/09/16 11:50:33;;;;;;;;;;;12.50;99.90;;;;;;5070267;28;20349;-73
2022/09/16 11:53:05;;;;;;;;;;;12.50;99.90;;;;;;5079886;28;19928;-73
2022/09/16 11:55:49;;;;;;;;;;;12.60;99.90;;;;;;5059641;28;19959;-73
2022/09/16 11:58:25;;;;;;;;;;;12.60;99.90;;;;;;5068283;28;20383;-73
2022/09/16 12:00:59;;;;;;;;;;;12.70;99.90;;;;;;5070754;28;19928;-73
2022/09/16 12:03:36;;;;;;;;;;;12.90;99.90;;;;;;5058103;28;19932;-73
2022/09/16 12:06:14;;;;;;;;;;;13.00;99.90;;;;;;5072466;28;19928;-73
2022/09/16 12:08:49;;;;;;;;;;;13.00;99.90;;;;;;5065949;28;19924;-74
2022/09/16 12:11:24;;;;;;;;;;;13.00;99.90;;;;;;5084247;28;19924;-73
2022/09/16 12:13:57;;;;;;;;;;;13.10;99.90;;;;;;5063439;28;20383;-73
2022/09/16 12:16:36;;;;;;;;;;;13.10;99.90;;;;;;5058657;28;19928;-73
2022/09/16 12:19:15;;;;;;;;;;;13.00;99.90;;;;;;5072138;28;19928;-73
2022/09/16 12:22:05;;;;;;;;;;;13.00;99.90;;;;;;5066445;28;19968;-73
2022/09/16 12:24:36;;;;;;;;;;;13.00;99.90;;;;;;5056933;28;19925;-73
2022/09/16 12:27:33;;;;;;;;;;;12.90;99.90;;;;;;5080012;28;19924;-73
2022/09/16 12:30:24;;;;;;;;;;;12.80;99.90;;;;;;5060090;28;19924;-73
2022/09/16 12:32:54;;;;;;;;;;;12.70;99.90;;;;;;5041636;28;19990;-73
2022/09/16 12:35:52;;;;;;;;;;;12.70;99.90;;;;;;5051820;28;20297;-73
2022/09/16 12:38:23;;;;;;;;;;;12.70;99.90;;;;;;5039304;28;20386;-72
2022/09/16 12:41:07;;;;;;;;;;;12.80;99.90;;;;;;5067318;28;19982;-73
2022/09/16 12:43:45;;;;;;;;;;;12.80;99.90;;;;;;5061509;28;19950;-73
2022/09/16 12:46:36;;;;;;;;;;;12.80;99.90;;;;;;5070367;28;19936;-72
2022/09/16 12:49:17;;;;;;;;;;;12.80;99.90;;;;;;5061838;28;19993;-73
2022/09/16 12:51:59;;;;;;;;;;;13.00;99.90;;;;;;5083637;28;19932;-73
2022/09/16 12:54:48;;;;;;;;;;;13.00;99.90;;;;;;5071304;28;19924;-72
2022/09/16 12:57:20;;;;;;;;;;;13.00;99.90;;;;;;5068585;28;19924;-72
2022/09/16 12:59:46;;;;;;;;;;;13.00;99.90;;;;;;5053282;28;19980;-73
2022/09/16 13:02:21;;;;;;;;;;;13.00;99.90;;;;;;5051904;28;19932;-71
2022/09/16 13:04:55;;;;;;;;;;;12.90;99.90;;;;;;5063014;28;19973;-72
2022/09/16 13:07:28;;;;;;;;;;;12.90;99.90;;;;;;5068579;28;19983;-71
2022/09/16 13:10:06;;;;;;;;;;;12.80;99.90;;;;;;5067684;28;20375;-71
2022/09/16 13:12:38;;;;;;;;;;;12.80;99.90;;;;;;5055852;28;19924;-71
2022/09/16 13:15:05;;;;;;;;;;;12.70;99.90;;;;;;5076191;28;19978;-71
2022/09/16 13:17:38;;;;;;;;;;;12.70;99.90;;;;;;5073870;28;19928;-72
2022/09/16 13:20:13;;;;;;;;;;;12.70;99.90;;;;;;5064128;28;20059;-71
2022/09/16 13:22:56;;;;;;;;;;;12.60;99.90;;;;;;5056727;28;19990;-72
2022/09/16 13:25:42;;;;;;;;;;;12.60;99.90;;;;;;5074852;28;19928;-71
2022/09/16 13:28:43;;;;;;;;;;;12.60;99.90;;;;;;5081015;28;19924;-72
2022/09/16 13:31:17;;;;;;;;;;;12.70;99.90;;;;;;5066994;28;20279;-71
2022/09/16 13:33:58;;;;;;;;;;;12.70;99.90;;;;;;5061797;28;19932;-71
2022/09/16 13:36:31;;;;;;;;;;;12.70;99.90;;;;;;5073730;28;19924;-74
2022/09/16 13:39:04;;;;;;;;;;;12.70;99.90;;;;;;5043400;28;19951;-71
2022/09/16 13:41:39;;;;;;;;;;;12.70;99.90;;;;;;5052793;28;19972;-73
2022/09/16 13:44:26;;;;;;;;;;;12.80;99.90;;;;;;5082546;28;19936;-72
2022/09/16 13:47:09;;;;;;;;;;;12.80;99.90;;;;;;5053189;28;19924;-72
2022/09/16 13:49:59;;;;;;;;;;;12.90;99.90;;;;;;5075261;28;20447;-73
2022/09/16 13:52:34;;;;;;;;;;;12.90;99.90;;;;;;5074036;28;20382;-73
2022/09/16 13:55:16;;;;;;;;;;;12.90;99.90;;;;;;5070289;28;19924;-74
2022/09/16 13:57:51;;;;;;;;;;;12.80;99.90;;;;;;5087307;28;19928;-72
2022/09/16 14:00:21;;;;;;;;;;;12.90;99.90;;;;;;5073598;28;20409;-72
2022/09/16 14:03:11;;;;;;;;;;;12.90;99.90;;;;;;5055834;28;20383;-71
2022/09/16 14:05:55;;;;;;;;;;;13.00;99.90;;;;;;5086623;28;19924;-71
2022/09/16 14:08:30;;;;;;;;;;;13.00;99.90;;;;;;5067739;28;19950;-72
2022/09/16 14:10:56;;;;;;;;;;;13.00;99.90;;;;;;5059937;28;19925;-72
2022/09/16 14:13:38;;;;;;;;;;;13.00;99.90;;;;;;5055737;28;20337;-72
2022/09/16 14:16:13;;;;;;;;;;;12.90;99.90;;;;;;5071008;28;20347;-71
2022/09/16 14:18:53;;;;;;;;;;;12.90;99.90;;;;;;5063195;28;19924;-73
2022/09/16 14:21:25;;;;;;;;;;;12.90;99.90;;;;;;5071295;28;19924;-73
2022/09/16 14:24:07;;;;;;;;;;;12.90;99.90;;;;;;5052504;28;19924;-72
2022/09/16 14:26:48;;;;;;;;;;;13.00;99.90;;;;;;5077428;28;19932;-72
2022/09/16 14:29:20;;;;;;;;;;;13.00;99.90;;;;;;5082447;28;19951;-72
2022/09/16 14:31:53;;;;;;;;;;;13.10;99.90;;;;;;5072223;28;19998;-75
2022/09/16 14:34:25;;;;;;;;;;;13.20;99.90;;;;;;5079139;28;19979;-71
2022/09/16 14:36:56;;;;;;;;;;;13.30;99.90;;;;;;5078697;28;19924;-72
2022/09/16 14:39:28;;;;;;;;;;;13.40;99.90;;;;;;5071390;28;19978;-71
2022/09/16 14:42:02;;;;;;;;;;;13.40;99.90;;;;;;5072957;28;19924;-72
2022/09/16 14:44:36;;;;;;;;;;;13.40;99.90;;;;;;5064788;28;19959;-71
2022/09/16 14:47:17;;;;;;;;;;;13.40;99.90;;;;;;5083531;28;20451;-71
2022/09/16 14:49:54;;;;;;;;;;;13.50;99.90;;;;;;5079950;28;19936;-72
2022/09/16 14:52:27;;;;;;;;;;;13.40;99.90;;;;;;5063203;28;19932;-71
2022/09/16 14:54:59;;;;;;;;;;;13.40;99.90;;;;;;5083609;28;19926;-72
2022/09/16 14:57:32;;;;;;;;;;;13.40;99.90;;;;;;5066356;28;20703;-71
2022/09/16 15:00:10;;;;;;;;;;;13.30;99.90;;;;;;5078400;28;19928;-71